Startpagina
METAR-TAF:

METAR-TAF

Vliegvelden :

Elsenborn

Bütgenbach, België

breedte: 50-28N, lengte: 006-11E, hoogte: 564 m

Actueel weer

Dit bericht is 24 minuten geleden gemaakt, om 21:55 UTC
Wind 4 kt uit het noorden
Temperatuur 12°C
Vochtigheid 88%
Druk 1023 hPa
Zicht: 8000 m

METAR: EBLB 242155Z AUTO 35004KT 8000 OVC013/// 12/10 Q1023 GRN

Tijdstip: 00:19 (22:19 UTC)


TAF: ontbreekt

Waarnemingen en weersverwachtingen van meer dan 4000 vliegvelden (METAR en TAF).

De beschikbare stations zijn de gele en rode punten op de kaart.

Ga met uw muis naar het station om de naam te zien.

Klik dan om waarnemingen en weersverwachtingen te zien.

kaart wijzigen: klik op de groene knoppen met een zwart kruis om in te zoomen, op de groene knop met een streepje om uit te zoomen of op de groene pijlen voor aangrenzende kaarten.


METAR-TAF: